Rudolph, Ohio
Current Conditions -  °F | °C
As of 1:53 AM on Friday 31 Oct 2014 (Local Time) from KFDY Reporting Station
Overcast Overcast  
Wind Chill: 39°   Ceiling: 5000
Heat Index: 42°   Visibility: 10mi
Dew Point: 37°   Wind: 5mph
Humidity: 82%   Direction: 200°SSW
Pressure: 30"   Gusts: NA
Location:  41.3°N, 83.67°W
Report Text: KFDY 310553Z AUTO 20004KT 10SM OVC050 06/03 A3000 RMK AO2 SLP160 T00560028 10083 20056 58012
Loading
Personal Weather Stations






























Interactive Weather Map
Tropical Storm Tracking
New forecast layout! Learn more

10-Day Weather Forecast

Advertisements
Track Severe Weather on mobile